Time;durP1;ratioP1;P1;durP2;ratioP2;P2;SDS_P1;SDS_P2;PMS_P1;PMS_P2;Temp;Humidity;BMP_temperature;BMP_pressure;BME280_temperature;BME280_humidity;BME280_pressure;Samples;Min_cycle;Max_cycle;Signal;HPM_P1;HPM_P2
2022/03/22 08:22:59;;;;;;;27.60;23.40;;;13.80;68.70;;;;;;2291907;62;30421;-77
2022/03/22 08:25:31;;;;;;;25.48;22.63;;;13.90;67.50;;;;;;2275232;62;30274;-76
2022/03/22 08:27:59;;;;;;;24.55;21.38;;;13.90;68.40;;;;;;2274271;62;30432;-74
2022/03/22 08:30:25;;;;;;;24.63;21.92;;;14.10;69.20;;;;;;2275479;62;30986;-75
2022/03/22 08:32:53;;;;;;;27.42;22.63;;;14.10;69.70;;;;;;2282874;62;30396;-75
2022/03/22 08:35:19;;;;;;;24.90;21.95;;;14.20;70.00;;;;;;2282517;62;31132;-72
2022/03/22 08:37:45;;;;;;;26.23;21.70;;;14.20;70.40;;;;;;2275318;62;30148;-72
2022/03/22 08:40:13;;;;;;;26.73;22.23;;;14.20;70.40;;;;;;2282863;62;32222;-71
2022/03/22 08:42:43;;;;;;;26.58;22.95;;;14.20;70.50;;;;;;2274395;62;33451;-72
2022/03/22 08:45:11;;;;;;;26.70;22.63;;;14.20;71.40;;;;;;2267621;62;31061;-71
2022/03/22 08:47:37;;;;;;;24.45;21.25;;;14.30;71.00;;;;;;2282842;62;30379;-71
2022/03/22 08:50:05;;;;;;;24.20;21.13;;;14.30;71.10;;;;;;2273820;62;33196;-72
2022/03/22 08:52:32;;;;;;;24.70;21.95;;;14.30;71.30;;;;;;2282048;62;30644;-72
2022/03/22 08:54:58;;;;;;;22.23;19.70;;;14.30;71.20;;;;;;2281991;62;30166;-72
2022/03/22 08:57:24;;;;;;;23.65;21.10;;;14.40;71.30;;;;;;2281329;62;30234;-71
2022/03/22 08:59:49;;;;;;;24.10;20.50;;;14.40;71.30;;;;;;2282525;62;30154;-70
2022/03/22 09:02:18;;;;;;;26.95;21.77;;;14.40;71.20;;;;;;2280196;62;30491;-72
2022/03/22 09:07:28;;;;;;;23.60;21.15;;;14.50;71.20;;;;;;2274332;62;30770;-69
2022/03/22 09:09:54;;;;;;;23.15;20.65;;;14.50;71.10;;;;;;2273975;62;31400;-69
2022/03/22 09:12:20;;;;;;;22.42;20.02;;;14.50;71.00;;;;;;2275204;62;30665;-69
2022/03/22 09:14:46;;;;;;;22.90;20.40;;;14.60;71.00;;;;;;2278887;62;30308;-69
2022/03/22 09:17:13;;;;;;;21.77;19.20;;;14.60;71.00;;;;;;2277986;62;30162;-69
2022/03/22 09:19:39;;;;;;;22.90;20.50;;;14.60;70.90;;;;;;2278159;62;30089;-68
2022/03/22 09:22:05;;;;;;;23.17;20.67;;;14.60;70.80;;;;;;2277293;62;32352;-70
2022/03/22 09:24:35;;;;;;;22.13;19.80;;;14.60;70.80;;;;;;2274879;62;30693;-68
2022/03/22 09:27:05;;;;;;;23.23;20.63;;;14.60;70.70;;;;;;2282239;62;30262;-69
2022/03/22 09:29:30;;;;;;;22.23;19.60;;;14.70;70.80;;;;;;2281983;62;30123;-71
2022/03/22 09:31:56;;;;;;;21.77;19.50;;;14.70;70.70;;;;;;2274910;62;30405;-71
2022/03/22 09:34:25;;;;;;;22.02;19.35;;;14.70;70.70;;;;;;2276689;62;30242;-71
2022/03/22 09:36:54;;;;;;;22.33;19.70;;;14.70;70.60;;;;;;2268889;62;30127;-71
2022/03/22 09:39:20;;;;;;;25.23;20.83;;;14.70;70.50;;;;;;2276228;62;32160;-71
2022/03/22 09:41:49;;;;;;;25.02;21.95;;;14.70;70.50;;;;;;2276642;62;30027;-71
2022/03/22 09:44:18;;;;;;;21.92;19.38;;;14.80;70.50;;;;;;2262795;62;30292;-70
2022/03/22 09:46:50;;;;;;;24.98;20.55;;;14.70;70.40;;;;;;2272155;62;30158;-70
2022/03/22 09:49:16;;;;;;;25.33;22.40;;;14.80;70.50;;;;;;2254334;62;31079;-73
2022/03/22 09:51:47;;;;;;;26.60;21.52;;;14.80;70.00;;;;;;2268183;62;30787;-72
2022/03/22 09:54:13;;;;;;;32.75;22.38;;;14.80;69.30;;;;;;2268785;62;30344;-78
2022/03/22 09:56:43;;;;;;;25.23;20.40;;;14.80;69.40;;;;;;2261138;62;30223;-73
2022/03/22 09:59:09;;;;;;;25.85;21.38;;;14.80;69.60;;;;;;2268537;62;30982;-74
2022/03/22 10:01:36;;;;;;;24.92;20.98;;;14.80;69.60;;;;;;2273801;62;30357;-73
2022/03/22 10:04:07;;;;;;;24.33;21.08;;;14.80;69.60;;;;;;2276674;62;30430;-77
2022/03/22 10:06:33;;;;;;;25.75;20.70;;;14.80;69.60;;;;;;2262681;62;30107;-80
2022/03/22 10:09:00;;;;;;;24.23;19.90;;;14.80;69.70;;;;;;2275968;62;31242;-74
2022/03/22 10:11:39;;;;;;;24.67;20.77;;;14.80;69.70;;;;;;2269379;62;31849;-77
2022/03/22 10:14:05;;;;;;;24.58;20.10;;;14.80;69.70;;;;;;2269447;62;30183;-72
2022/03/22 10:16:31;;;;;;;24.17;19.45;;;14.90;69.70;;;;;;2262472;62;30158;-72
2022/03/22 10:18:57;;;;;;;26.25;19.95;;;14.90;69.70;;;;;;2272815;62;31342;-72
2022/03/22 10:21:23;;;;;;;23.95;19.23;;;14.90;69.70;;;;;;2267786;62;30291;-71
2022/03/22 10:23:54;;;;;;;23.42;18.38;;;14.90;69.80;;;;;;2267878;62;30156;-72
2022/03/22 10:26:32;;;;;;;22.75;18.38;;;14.90;69.70;;;;;;2261667;62;30177;-72
2022/03/22 10:29:00;;;;;;;22.98;17.17;;;14.90;69.50;;;;;;2269400;62;30234;-70
2022/03/22 10:31:33;;;;;;;25.30;18.42;;;14.90;69.70;;;;;;2268680;62;30501;-70
2022/03/22 10:33:59;;;;;;;23.27;18.98;;;14.90;69.50;;;;;;2269486;62;30150;-70
2022/03/22 10:36:26;;;;;;;23.40;18.23;;;14.90;69.60;;;;;;2262527;62;30018;-70
2022/03/22 10:39:01;;;;;;;21.98;17.88;;;15.00;69.60;;;;;;2274674;62;31361;-70
2022/03/22 10:41:35;;;;;;;20.00;16.02;;;15.00;69.50;;;;;;2270035;62;32147;-70
2022/03/22 10:44:13;;;;;;;19.27;17.10;;;15.00;69.60;;;;;;2273846;62;30555;-70
2022/03/22 10:46:42;;;;;;;20.80;17.45;;;15.10;69.50;;;;;;2269650;62;30288;-70
2022/03/22 10:49:09;;;;;;;20.35;17.00;;;15.10;69.50;;;;;;2273656;62;31032;-70
2022/03/22 10:51:40;;;;;;;20.02;16.55;;;15.10;69.50;;;;;;2265236;62;30549;-70
2022/03/22 10:54:06;;;;;;;18.02;15.82;;;15.20;69.40;;;;;;2262549;62;30130;-70
2022/03/22 10:56:35;;;;;;;18.67;15.60;;;15.20;69.40;;;;;;2276482;62;30545;-70
2022/03/22 10:59:00;;;;;;;17.85;15.95;;;15.20;69.40;;;;;;2262684;62;30830;-70
2022/03/22 11:01:26;;;;;;;20.83;15.80;;;15.20;69.30;;;;;;2262318;62;31039;-70
2022/03/22 11:03:56;;;;;;;16.95;15.18;;;15.20;69.30;;;;;;2269308;62;30145;-70
2022/03/22 11:06:22;;;;;;;19.60;15.60;;;15.30;69.40;;;;;;2262601;62;30178;-70
2022/03/22 11:08:49;;;;;;;17.27;14.70;;;15.30;69.30;;;;;;2269074;62;32449;-70
2022/03/22 11:11:15;;;;;;;20.58;14.68;;;15.30;69.30;;;;;;2276524;62;30633;-70
2022/03/22 11:13:40;;;;;;;17.38;15.02;;;15.40;69.30;;;;;;2276351;62;30977;-72
2022/03/22 11:16:07;;;;;;;16.73;14.38;;;15.40;69.40;;;;;;2269152;62;30125;-72
2022/03/22 11:18:35;;;;;;;15.95;14.25;;;15.40;69.30;;;;;;2269487;62;30292;-71
2022/03/22 11:21:02;;;;;;;16.40;14.48;;;15.40;69.30;;;;;;2275975;62;30606;-72
2022/03/22 11:23:30;;;;;;;15.68;14.05;;;15.50;69.30;;;;;;2269275;62;30130;-72
2022/03/22 11:26:19;;;;;;;15.48;13.73;;;15.50;69.20;;;;;;2262203;62;30169;-71
2022/03/22 11:28:46;;;;;;;15.02;13.45;;;15.60;69.20;;;;;;2269622;62;30964;-71
2022/03/22 11:31:16;;;;;;;17.35;13.20;;;15.60;69.30;;;;;;2269466;62;30333;-70
2022/03/22 11:36:28;;;;;;;14.05;11.73;;;15.70;69.20;;;;;;2261511;62;30260;-70
2022/03/22 11:38:55;;;;;;;15.15;13.23;;;15.70;69.10;;;;;;2258991;62;30749;-71
2022/03/22 11:44:21;;;;;;;13.05;11.65;;;15.80;69.10;;;;;;2269424;62;30915;-70
2022/03/22 11:46:48;;;;;;;13.95;12.00;;;15.80;68.90;;;;;;2268103;62;31794;-70
2022/03/22 11:49:19;;;;;;;14.85;12.23;;;15.90;68.80;;;;;;2263575;62;30390;-71
2022/03/22 11:52:09;;;;;;;14.93;13.18;;;15.90;68.90;;;;;;2272327;62;30775;-71
2022/03/22 11:54:37;;;;;;;14.75;12.43;;;16.00;69.20;;;;;;2267325;62;30246;-71
2022/03/22 11:57:03;;;;;;;14.10;12.63;;;16.10;68.80;;;;;;2268933;62;30155;-70
2022/03/22 11:59:39;;;;;;;16.10;13.00;;;16.10;69.50;;;;;;2263004;62;32042;-71
2022/03/22 12:02:05;;;;;;;19.08;16.02;;;16.10;68.50;;;;;;2272299;62;30326;-71
2022/03/22 12:04:41;;;;;;;23.50;17.70;;;16.20;68.30;;;;;;2267519;62;30269;-71
2022/03/22 12:07:09;;;;;;;22.95;18.17;;;16.30;67.80;;;;;;2266789;62;30210;-70
2022/03/22 12:09:41;;;;;;;30.40;19.35;;;16.40;67.60;;;;;;2266674;62;32139;-70
2022/03/22 12:12:09;;;;;;;25.85;21.02;;;16.50;67.00;;;;;;2264612;62;31950;-70
2022/03/22 12:14:35;;;;;;;29.17;21.35;;;16.50;66.80;;;;;;2276198;62;30065;-74
2022/03/22 12:17:03;;;;;;;28.63;19.42;;;16.60;66.80;;;;;;2275873;62;30266;-73
2022/03/22 12:19:32;;;;;;;24.70;19.83;;;16.50;66.70;;;;;;2265269;62;31041;-81
2022/03/22 12:22:00;;;;;;;24.10;19.27;;;16.50;66.80;;;;;;2275969;62;31391;-82
2022/03/22 12:24:30;;;;;;;21.25;17.52;;;16.50;67.00;;;;;;2268784;62;30319;-84
2022/03/22 12:26:57;;;;;;;25.40;17.98;;;16.50;67.80;;;;;;2268004;62;30060;-81
2022/03/22 12:29:25;;;;;;;25.90;17.67;;;16.50;67.30;;;;;;2259727;62;30247;-81
2022/03/22 12:31:54;;;;;;;22.65;17.35;;;16.50;67.10;;;;;;2276241;62;30399;-83
2022/03/22 12:34:27;;;;;;;21.73;17.63;;;16.50;67.10;;;;;;2262013;62;30198;-80
2022/03/22 12:36:53;;;;;;;23.50;16.52;;;16.50;67.40;;;;;;2275639;62;30161;-84
2022/03/22 12:39:19;;;;;;;20.10;16.63;;;16.50;67.60;;;;;;2268747;62;32274;-86
2022/03/22 12:41:46;;;;;;;19.60;16.45;;;16.50;67.40;;;;;;2261657;62;30989;-84
2022/03/22 12:44:12;;;;;;;19.40;15.80;;;16.60;67.50;;;;;;2275946;62;30315;-86
2022/03/22 12:46:38;;;;;;;19.92;15.75;;;16.60;67.40;;;;;;2276104;62;30546;-87
2022/03/22 12:49:09;;;;;;;19.13;15.65;;;16.60;67.30;;;;;;2256363;62;30356;-90
2022/03/22 12:51:35;;;;;;;17.23;15.38;;;16.60;67.40;;;;;;2268614;62;30169;-90
2022/03/22 12:54:03;;;;;;;19.00;15.73;;;16.60;67.30;;;;;;2260777;62;30112;-90
2022/03/22 12:56:31;;;;;;;19.77;14.20;;;16.70;67.30;;;;;;2260889;62;30428;-88
2022/03/22 12:58:57;;;;;;;20.88;14.32;;;16.70;67.20;;;;;;2267460;62;30191;-86
2022/03/22 13:01:23;;;;;;;20.13;15.65;;;16.70;67.20;;;;;;2267481;62;30254;-90
2022/03/22 13:03:52;;;;;;;20.30;13.88;;;16.80;66.60;;;;;;2260733;62;30327;-90
2022/03/22 13:06:19;;;;;;;17.88;13.77;;;16.80;66.90;;;;;;2267732;62;30304;-93
2022/03/22 13:11:30;;;;;;;17.05;12.90;;;16.90;66.70;;;;;;2288822;62;30503;-92
2022/03/22 13:16:51;;;;;;;18.48;12.65;;;16.90;66.30;;;;;;2280353;62;29353;-92
2022/03/22 13:19:17;;;;;;;15.55;12.57;;;16.90;66.80;;;;;;2269233;62;30192;-93
2022/03/22 13:21:44;;;;;;;15.40;12.60;;;16.90;66.20;;;;;;2258632;63;30883;-93
2022/03/22 13:24:12;;;;;;;18.52;13.00;;;16.90;66.20;;;;;;2254203;63;30012;-92
2022/03/22 13:26:49;;;;;;;14.68;12.27;;;17.00;66.40;;;;;;2256978;63;30372;-92
2022/03/22 13:29:16;;;;;;;17.20;12.60;;;16.90;66.10;;;;;;2248067;63;31041;-93
2022/03/22 13:32:01;;;;;;;16.00;11.90;;;16.90;66.00;;;;;;2248226;63;30327;-91
2022/03/22 13:34:40;;;;;;;15.68;12.63;;;17.00;65.60;;;;;;2255079;63;30131;-94
2022/03/22 13:37:11;;;;;;;17.85;13.00;;;17.00;65.90;;;;;;2262437;63;30101;-93
2022/03/22 13:39:37;;;;;;;17.02;12.80;;;17.00;66.00;;;;;;2256796;63;30007;-93
2022/03/22 13:42:16;;;;;;;20.50;13.02;;;17.00;65.90;;;;;;2263732;63;30033;-94
2022/03/22 13:45:09;;;;;;;16.85;12.27;;;17.00;65.60;;;;;;2264505;63;30468;-93
2022/03/22 13:47:36;;;;;;;15.23;12.35;;;17.00;65.70;;;;;;2264066;63;30064;-91
2022/03/22 13:50:24;;;;;;;19.13;13.60;;;17.00;65.70;;;;;;2259965;62;30695;-78
2022/03/22 13:53:11;;;;;;;18.48;13.18;;;17.00;65.50;;;;;;2257212;63;30271;-79
2022/03/22 13:55:41;;;;;;;20.83;14.05;;;17.10;65.00;;;;;;2257580;63;31449;-83
2022/03/22 13:58:23;;;;;;;18.80;13.82;;;17.10;65.50;;;;;;2257948;63;30386;-87
2022/03/22 14:00:51;;;;;;;22.48;14.77;;;17.20;65.10;;;;;;2266515;63;30868;-87
2022/03/22 14:03:17;;;;;;;22.45;15.55;;;17.20;65.00;;;;;;2257510;63;30903;-85
2022/03/22 14:05:46;;;;;;;20.58;15.40;;;17.30;64.80;;;;;;2253938;63;30209;-85
2022/03/22 14:08:12;;;;;;;19.88;15.15;;;17.30;64.60;;;;;;2253454;63;30337;-86
2022/03/22 14:10:39;;;;;;;20.77;15.00;;;17.30;64.60;;;;;;2260535;62;30330;-86
2022/03/22 14:13:06;;;;;;;22.27;15.13;;;17.30;64.50;;;;;;2261604;63;30329;-86
2022/03/22 14:15:32;;;;;;;20.95;15.73;;;17.40;64.40;;;;;;2253189;63;30044;-86
2022/03/22 14:18:01;;;;;;;21.50;14.82;;;17.30;64.30;;;;;;2259730;63;30375;-86
2022/03/22 14:20:27;;;;;;;19.35;14.80;;;17.40;64.20;;;;;;2260694;62;32094;-86
2022/03/22 14:22:54;;;;;;;17.55;13.80;;;17.40;64.20;;;;;;2261826;62;30450;-81
2022/03/22 14:25:21;;;;;;;16.90;13.73;;;17.40;64.50;;;;;;2276895;62;30227;-82
2022/03/22 14:27:48;;;;;;;17.85;13.80;;;17.40;64.30;;;;;;2273880;62;30830;-80
2022/03/22 14:30:19;;;;;;;24.77;15.43;;;17.50;64.20;;;;;;2268432;62;30867;-81
2022/03/22 14:32:47;;;;;;;24.83;17.35;;;17.50;64.10;;;;;;2276177;62;30101;-81
2022/03/22 14:38:02;;;;;;;25.67;16.65;;;17.60;63.60;;;;;;2268654;62;30142;-81
2022/03/22 14:40:28;;;;;;;25.48;17.65;;;17.70;63.60;;;;;;2269167;62;30095;-81
2022/03/22 14:42:57;;;;;;;25.58;17.67;;;17.70;63.40;;;;;;2269370;62;30582;-81
2022/03/22 14:45:24;;;;;;;23.08;17.23;;;17.70;64.00;;;;;;2269691;62;30093;-81
2022/03/22 14:47:51;;;;;;;25.35;17.77;;;17.70;63.00;;;;;;2261394;62;30153;-81
2022/03/22 14:50:17;;;;;;;22.45;17.88;;;17.80;63.00;;;;;;2275590;62;31992;-81
2022/03/22 14:55:28;;;;;;;26.73;18.77;;;17.80;62.70;;;;;;2267875;62;30044;-81
2022/03/22 15:00:40;;;;;;;25.13;18.35;;;17.80;62.50;;;;;;2268165;62;30169;-81
2022/03/22 15:03:07;;;;;;;25.25;18.23;;;17.80;62.40;;;;;;2268652;62;30615;-81
2022/03/22 15:05:34;;;;;;;23.35;18.17;;;17.80;62.20;;;;;;2276176;62;30078;-81
2022/03/22 15:08:09;;;;;;;25.30;18.38;;;17.90;62.20;;;;;;2268973;62;30256;-81
2022/03/22 15:10:42;;;;;;;25.85;18.20;;;17.90;61.80;;;;;;2276613;62;30279;-81
2022/03/22 15:13:09;;;;;;;27.73;18.45;;;17.90;61.60;;;;;;2269365;62;30711;-81
2022/03/22 15:15:36;;;;;;;26.75;18.50;;;17.90;61.70;;;;;;2276554;62;30206;-81
2022/03/22 15:18:03;;;;;;;26.05;18.45;;;17.90;61.70;;;;;;2269119;62;30272;-80
2022/03/22 15:20:29;;;;;;;24.30;17.27;;;17.90;61.70;;;;;;2269303;62;30889;-81
2022/03/22 15:22:57;;;;;;;24.63;17.60;;;17.90;61.40;;;;;;2261619;62;30083;-81
2022/03/22 15:25:24;;;;;;;23.02;16.55;;;17.90;61.30;;;;;;2275916;62;30260;-82
2022/03/22 15:27:51;;;;;;;20.75;16.23;;;17.90;61.20;;;;;;2276192;62;30182;-80
2022/03/22 15:30:17;;;;;;;21.33;15.68;;;18.00;61.40;;;;;;2274911;62;31674;-82
2022/03/22 15:32:43;;;;;;;25.98;16.95;;;18.00;61.30;;;;;;2263311;62;30596;-83
2022/03/22 15:35:09;;;;;;;23.05;18.27;;;18.00;61.20;;;;;;2275876;62;30103;-81
2022/03/22 15:37:44;;;;;;;24.73;18.85;;;18.10;61.30;;;;;;2263383;62;30652;-79
2022/03/22 15:40:12;;;;;;;24.65;19.52;;;18.20;61.60;;;;;;2276185;62;31012;-80
2022/03/22 15:42:38;;;;;;;27.83;19.88;;;18.20;61.50;;;;;;2268911;62;30894;-79
2022/03/22 15:45:05;;;;;;;27.30;20.85;;;18.20;61.40;;;;;;2269039;62;30804;-79
2022/03/22 15:47:31;;;;;;;25.75;20.02;;;18.30;61.20;;;;;;2268828;62;30188;-77
2022/03/22 15:49:57;;;;;;;29.63;23.38;;;18.30;61.20;;;;;;2268815;62;30915;-77
2022/03/22 15:52:22;;;;;;;26.75;21.00;;;18.40;62.40;;;;;;2275472;62;31799;-78
2022/03/22 15:54:49;;;;;;;25.38;20.17;;;18.40;62.80;;;;;;2276093;62;30106;-80
2022/03/22 15:57:18;;;;;;;28.98;21.88;;;18.40;63.00;;;;;;2269049;62;30228;-76
2022/03/22 15:59:44;;;;;;;29.52;21.95;;;18.50;63.20;;;;;;2276343;62;30953;-76
2022/03/22 16:02:10;;;;;;;31.33;24.10;;;18.50;63.30;;;;;;2275772;62;31812;-75
2022/03/22 16:04:36;;;;;;;28.25;21.83;;;18.50;63.20;;;;;;2276248;62;30177;-84
2022/03/22 16:07:02;;;;;;;38.38;27.88;;;18.50;63.10;;;;;;2276293;62;30502;-83
2022/03/22 16:09:28;;;;;;;33.55;26.90;;;18.50;62.80;;;;;;2257909;62;30161;-80
2022/03/22 16:11:55;;;;;;;36.92;29.15;;;18.50;62.20;;;;;;2268233;62;30729;-81
2022/03/22 16:14:22;;;;;;;33.40;27.15;;;18.40;62.10;;;;;;2253906;62;30403;-83
2022/03/22 16:16:48;;;;;;;32.85;26.55;;;18.40;61.50;;;;;;2267986;62;30255;-84
2022/03/22 16:19:15;;;;;;;36.72;26.85;;;18.40;61.30;;;;;;2267811;62;30794;-80
2022/03/22 16:21:41;;;;;;;36.55;29.25;;;18.50;60.90;;;;;;2260481;62;31300;-81
2022/03/22 16:24:16;;;;;;;35.10;28.67;;;18.50;60.30;;;;;;2260745;62;30379;-82
2022/03/22 16:26:44;;;;;;;42.22;30.27;;;18.50;60.30;;;;;;2261579;62;30148;-83
2022/03/22 16:29:17;;;;;;;38.38;28.75;;;18.50;60.30;;;;;;2260830;62;30179;-82
2022/03/22 16:31:49;;;;;;;37.33;29.88;;;18.40;60.00;;;;;;2268326;62;30184;-80
2022/03/22 16:37:00;;;;;;;41.40;31.65;;;18.30;60.60;;;;;;2267496;62;30270;-81
2022/03/22 16:39:33;;;;;;;40.17;31.05;;;18.30;60.60;;;;;;2268289;62;31407;-81
2022/03/22 16:42:01;;;;;;;38.50;31.27;;;18.30;60.70;;;;;;2260899;62;30330;-81
2022/03/22 16:44:47;;;;;;;44.53;30.40;;;18.30;60.60;;;;;;2268892;62;30029;-80
2022/03/22 16:47:15;;;;;;;40.10;29.15;;;18.20;60.20;;;;;;2262187;62;30034;-81
2022/03/22 16:49:52;;;;;;;39.40;28.50;;;18.20;60.60;;;;;;2257830;62;30150;-85
2022/03/22 16:52:21;;;;;;;38.38;29.55;;;18.20;60.60;;;;;;2255538;62;31972;-84
2022/03/22 16:54:47;;;;;;;33.40;26.35;;;18.20;60.60;;;;;;2269246;62;30451;-87
2022/03/22 16:57:14;;;;;;;38.33;28.27;;;18.30;60.60;;;;;;2261439;62;30231;-86
2022/03/22 16:59:41;;;;;;;37.30;29.67;;;18.30;60.60;;;;;;2264463;62;30239;-89
2022/03/22 17:02:10;;;;;;;36.70;27.98;;;18.30;60.60;;;;;;2262078;62;30344;-87
2022/03/22 17:04:38;;;;;;;37.67;27.92;;;18.30;60.60;;;;;;2268982;62;30815;-86
2022/03/22 17:07:04;;;;;;;35.00;29.02;;;18.30;60.60;;;;;;2261854;62;30502;-85
2022/03/22 17:09:33;;;;;;;36.65;29.00;;;18.30;60.60;;;;;;2269080;62;30810;-86
2022/03/22 17:12:00;;;;;;;34.05;27.05;;;18.30;60.80;;;;;;2268627;62;30680;-85
2022/03/22 17:14:28;;;;;;;36.47;30.17;;;18.20;60.80;;;;;;2269305;62;30261;-86
2022/03/22 17:16:56;;;;;;;37.90;29.52;;;18.20;60.90;;;;;;2263485;62;30114;-86
2022/03/22 17:19:23;;;;;;;38.30;30.13;;;18.20;61.00;;;;;;2263347;62;31663;-85
2022/03/22 17:21:49;;;;;;;37.78;29.17;;;18.10;61.10;;;;;;2268729;62;31325;-86
2022/03/22 17:24:15;;;;;;;35.53;29.83;;;18.10;61.10;;;;;;2269082;62;30110;-85
2022/03/22 17:26:41;;;;;;;38.28;29.35;;;18.10;61.20;;;;;;2274121;62;29990;-84
2022/03/22 17:29:07;;;;;;;39.53;30.25;;;18.00;61.20;;;;;;2272703;62;30145;-83
2022/03/22 17:31:35;;;;;;;39.83;29.80;;;18.00;62.10;;;;;;2261729;62;30134;-86
2022/03/22 17:34:01;;;;;;;35.13;27.92;;;18.00;61.50;;;;;;2268768;62;30105;-88
2022/03/22 17:36:27;;;;;;;32.80;27.50;;;17.90;61.40;;;;;;2268580;62;30242;-87
2022/03/22 17:38:55;;;;;;;33.72;27.20;;;17.90;61.50;;;;;;2271070;62;31152;-79
2022/03/22 17:41:23;;;;;;;32.15;26.42;;;17.90;61.50;;;;;;2277468;62;30339;-88
2022/03/22 17:43:50;;;;;;;34.50;26.42;;;17.80;61.50;;;;;;2278453;62;30209;-86
2022/03/22 17:46:20;;;;;;;38.30;28.13;;;17.80;61.70;;;;;;2260980;62;30580;-85
2022/03/22 17:48:47;;;;;;;32.35;26.08;;;17.80;61.80;;;;;;2261467;62;31105;-80
2022/03/22 17:51:13;;;;;;;31.00;24.17;;;17.70;61.80;;;;;;2261649;62;30634;-83
2022/03/22 17:53:39;;;;;;;30.38;23.38;;;17.70;62.00;;;;;;2268475;62;30152;-83
2022/03/22 17:56:07;;;;;;;26.80;21.60;;;17.70;62.10;;;;;;2269365;62;31597;-83
2022/03/22 17:58:36;;;;;;;27.60;22.77;;;17.70;62.20;;;;;;2269052;62;31485;-83
2022/03/22 18:01:02;;;;;;;26.45;22.27;;;17.70;62.40;;;;;;2269646;62;30313;-82
2022/03/22 18:03:28;;;;;;;25.52;21.13;;;17.60;62.50;;;;;;2269362;62;30412;-85
2022/03/22 18:05:54;;;;;;;24.63;20.23;;;17.60;62.60;;;;;;2276993;62;30188;-84
2022/03/22 18:08:23;;;;;;;22.80;20.50;;;17.60;62.70;;;;;;2264914;62;30080;-84
2022/03/22 18:10:49;;;;;;;24.33;19.30;;;17.60;62.80;;;;;;2267024;62;32369;-81
2022/03/22 18:13:16;;;;;;;25.33;19.92;;;17.60;62.90;;;;;;2252608;62;30157;-86
2022/03/22 18:15:42;;;;;;;22.17;19.77;;;17.60;63.30;;;;;;2272429;62;30432;-84
2022/03/22 18:18:09;;;;;;;23.15;19.45;;;17.60;63.20;;;;;;2284545;62;31965;-83
2022/03/22 18:20:35;;;;;;;23.15;18.63;;;17.60;63.30;;;;;;2268175;62;30346;-82
2022/03/22 18:23:04;;;;;;;24.25;21.05;;;17.50;63.40;;;;;;2261354;62;30497;-79
2022/03/22 18:25:33;;;;;;;23.67;19.70;;;17.60;63.70;;;;;;2269323;62;30568;-76
2022/03/22 18:27:58;;;;;;;21.48;18.88;;;17.60;63.70;;;;;;2267168;62;30163;-78
2022/03/22 18:30:27;;;;;;;38.13;21.65;;;17.60;64.40;;;;;;2269191;62;31287;-71
2022/03/22 18:32:54;;;;;;;26.55;20.17;;;17.60;64.50;;;;;;2271391;62;30306;-79
2022/03/22 18:35:20;;;;;;;26.15;20.85;;;17.60;64.30;;;;;;2271385;62;30468;-79
2022/03/22 18:37:46;;;;;;;23.30;19.63;;;17.60;64.40;;;;;;2267368;62;30394;-79
2022/03/22 18:40:12;;;;;;;28.85;21.42;;;17.70;64.50;;;;;;2270161;62;31508;-75
2022/03/22 18:42:39;;;;;;;31.13;21.88;;;17.70;64.80;;;;;;2274343;62;31154;-76
2022/03/22 18:45:06;;;;;;;27.77;20.98;;;17.80;64.70;;;;;;2274628;62;30341;-78
2022/03/22 18:47:32;;;;;;;28.73;20.08;;;17.80;64.80;;;;;;2274773;62;30878;-77
2022/03/22 18:50:00;;;;;;;25.13;19.90;;;17.80;64.80;;;;;;2267509;62;32108;-76
2022/03/22 18:52:26;;;;;;;24.83;20.63;;;17.90;65.00;;;;;;2267783;62;30341;-77
2022/03/22 18:54:52;;;;;;;23.08;19.92;;;17.80;65.20;;;;;;2267968;62;30645;-75
2022/03/22 18:57:21;;;;;;;25.30;19.88;;;17.90;65.40;;;;;;2267863;62;30292;-75
2022/03/22 18:59:47;;;;;;;23.40;18.98;;;17.80;65.50;;;;;;2275128;62;31138;-75
2022/03/22 19:02:13;;;;;;;25.33;19.63;;;17.90;65.70;;;;;;2267628;62;30406;-75
2022/03/22 19:04:39;;;;;;;25.60;18.55;;;17.90;65.70;;;;;;2275104;62;30149;-75
2022/03/22 19:07:04;;;;;;;24.73;18.70;;;17.90;65.60;;;;;;2267202;62;30916;-75
2022/03/22 19:09:30;;;;;;;23.60;18.60;;;17.90;65.50;;;;;;2263860;62;32076;-74
2022/03/22 19:11:56;;;;;;;23.13;18.45;;;17.90;65.60;;;;;;2259657;62;30802;-74
2022/03/22 19:14:22;;;;;;;23.55;17.50;;;17.90;65.80;;;;;;2267025;62;30177;-74
2022/03/22 19:19:35;;;;;;;25.50;17.98;;;17.80;66.00;;;;;;2268343;62;31827;-76
2022/03/22 19:22:02;;;;;;;25.20;18.02;;;17.80;66.10;;;;;;2274708;62;30241;-76
2022/03/22 19:24:30;;;;;;;21.63;17.63;;;17.80;66.10;;;;;;2275106;62;30024;-75
2022/03/22 19:27:00;;;;;;;20.88;17.45;;;17.70;66.20;;;;;;2267749;62;30345;-76
2022/03/22 19:29:26;;;;;;;20.95;17.67;;;17.70;66.20;;;;;;2275923;62;31115;-75
2022/03/22 19:34:36;;;;;;;20.02;16.10;;;17.60;66.10;;;;;;2274890;62;30211;-75
2022/03/22 19:37:02;;;;;;;24.00;16.40;;;17.60;66.10;;;;;;2274780;62;31081;-76
2022/03/22 19:39:28;;;;;;;19.20;16.50;;;17.60;66.10;;;;;;2267627;62;30373;-76
2022/03/22 19:41:54;;;;;;;21.27;16.42;;;17.50;66.20;;;;;;2274845;62;30517;-76
2022/03/22 19:44:21;;;;;;;20.48;16.13;;;17.50;66.30;;;;;;2274414;62;30236;-76
2022/03/22 19:46:47;;;;;;;18.25;15.80;;;17.50;66.60;;;;;;2266373;62;30790;-75
2022/03/22 19:49:15;;;;;;;27.05;16.58;;;17.50;66.80;;;;;;2273522;62;30278;-76
2022/03/22 19:51:41;;;;;;;25.33;15.57;;;17.50;66.90;;;;;;2264712;62;30237;-75
2022/03/22 19:54:07;;;;;;;17.05;14.80;;;17.50;66.90;;;;;;2270978;62;30400;-74
2022/03/22 19:56:35;;;;;;;18.77;15.73;;;17.50;67.00;;;;;;2271260;62;31173;-75
2022/03/22 19:59:02;;;;;;;19.58;15.88;;;17.50;67.70;;;;;;2267083;62;30714;-75
2022/03/22 20:01:27;;;;;;;20.52;15.25;;;17.50;67.00;;;;;;2265871;62;30322;-75
2022/03/22 20:03:54;;;;;;;18.00;14.88;;;17.50;66.90;;;;;;2266599;62;30240;-75
2022/03/22 20:06:21;;;;;;;20.70;14.93;;;17.50;66.90;;;;;;2271357;62;32353;-75
2022/03/22 20:08:47;;;;;;;21.77;15.52;;;17.50;67.00;;;;;;2266216;62;30407;-75
2022/03/22 20:11:16;;;;;;;20.48;15.65;;;17.50;67.00;;;;;;2265577;62;30734;-75
2022/03/22 20:13:48;;;;;;;19.23;16.15;;;17.50;67.00;;;;;;2269852;62;31833;-75
2022/03/22 20:16:14;;;;;;;15.35;13.65;;;17.50;67.20;;;;;;2265340;62;32324;-76
2022/03/22 20:18:40;;;;;;;17.55;14.75;;;17.40;67.20;;;;;;2270776;62;32004;-75
2022/03/22 20:21:07;;;;;;;17.70;14.10;;;17.40;67.20;;;;;;2270540;62;30118;-75
2022/03/22 20:23:33;;;;;;;18.27;15.00;;;17.40;67.20;;;;;;2266408;62;30197;-75
2022/03/22 20:26:00;;;;;;;18.27;14.80;;;17.40;67.30;;;;;;2270060;62;31260;-75
2022/03/22 20:28:26;;;;;;;18.17;14.77;;;17.40;67.30;;;;;;2266481;62;30251;-75
2022/03/22 20:30:51;;;;;;;17.55;14.88;;;17.40;67.50;;;;;;2263268;62;30434;-75
2022/03/22 20:33:20;;;;;;;15.60;13.82;;;17.40;67.50;;;;;;2267189;62;30338;-77
2022/03/22 20:35:46;;;;;;;18.73;14.65;;;17.40;67.60;;;;;;2274457;62;30178;-77
2022/03/22 20:38:12;;;;;;;17.38;14.70;;;17.40;67.70;;;;;;2274488;62;32176;-77
2022/03/22 20:40:41;;;;;;;15.82;13.73;;;17.40;67.50;;;;;;2274462;62;30236;-76
2022/03/22 20:43:07;;;;;;;15.93;13.32;;;17.40;67.40;;;;;;2272405;62;30443;-76
2022/03/22 20:45:34;;;;;;;15.10;13.57;;;17.40;67.30;;;;;;2266229;62;31287;-77
2022/03/22 20:48:01;;;;;;;15.82;13.90;;;17.40;67.30;;;;;;2266316;62;30695;-76
2022/03/22 20:50:27;;;;;;;15.38;13.18;;;17.40;67.10;;;;;;2266335;62;30332;-78
2022/03/22 20:52:57;;;;;;;15.77;14.07;;;17.40;67.10;;;;;;2270567;62;30433;-78
2022/03/22 20:55:24;;;;;;;15.40;13.90;;;17.40;67.20;;;;;;2266567;62;32389;-77
2022/03/22 21:00:36;;;;;;;16.10;14.40;;;17.40;67.20;;;;;;2274448;62;30542;-78
2022/03/22 21:03:01;;;;;;;15.05;13.40;;;17.40;67.30;;;;;;2266756;62;30235;-74
2022/03/22 21:05:27;;;;;;;15.15;13.50;;;17.40;67.40;;;;;;2274445;62;31559;-76
2022/03/22 21:07:54;;;;;;;17.05;14.85;;;17.40;67.40;;;;;;2260217;62;30831;-75
2022/03/22 21:10:19;;;;;;;17.45;15.07;;;17.40;67.50;;;;;;2274337;62;30219;-76
2022/03/22 21:12:46;;;;;;;20.83;15.23;;;17.40;67.60;;;;;;2273888;62;30641;-76
2022/03/22 21:15:14;;;;;;;16.73;14.75;;;17.40;67.70;;;;;;2273718;62;30955;-76
2022/03/22 21:17:40;;;;;;;15.68;14.07;;;17.40;67.70;;;;;;2272908;62;30511;-76
2022/03/22 21:20:08;;;;;;;16.13;14.48;;;17.40;67.70;;;;;;2274044;62;30080;-78
2022/03/22 21:22:34;;;;;;;19.98;14.73;;;17.40;67.80;;;;;;2273800;62;30316;-76
2022/03/22 21:25:00;;;;;;;15.98;14.38;;;17.40;67.80;;;;;;2272241;62;30801;-76
2022/03/22 21:27:26;;;;;;;17.83;15.15;;;17.40;68.00;;;;;;2276778;62;30196;-77